createdAt,value
2019-02-23T00:00:57.813Z,6.00
2019-02-23T00:03:25.879Z,5.27
2019-02-23T00:05:53.864Z,5.57
2019-02-23T00:08:21.915Z,5.90
2019-02-23T00:10:49.913Z,5.60
2019-02-23T00:13:19.661Z,5.80
2019-02-23T00:15:49.128Z,5.70
2019-02-23T00:18:17.815Z,5.87
2019-02-23T00:20:45.876Z,6.27
2019-02-23T00:23:13.941Z,5.90
2019-02-23T00:25:42.049Z,5.93
2019-02-23T00:28:10.089Z,6.17
2019-02-23T00:30:38.150Z,5.63
2019-02-23T00:33:06.115Z,5.73
2019-02-23T00:35:34.102Z,6.03
2019-02-23T00:38:02.118Z,6.53
2019-02-23T00:40:31.484Z,6.10
2019-02-23T00:42:59.521Z,6.03
2019-02-23T00:45:27.518Z,5.97
2019-02-23T00:47:55.522Z,6.27
2019-02-23T00:50:23.685Z,6.83
2019-02-23T00:52:53.519Z,6.53
2019-02-23T00:55:21.471Z,5.70
2019-02-23T00:57:49.582Z,6.37
2019-02-23T01:00:17.593Z,5.70
2019-02-23T01:02:45.685Z,6.33
2019-02-23T01:05:13.651Z,6.00
2019-02-23T01:07:41.682Z,5.70
2019-02-23T01:10:10.030Z,5.50
2019-02-23T01:12:38.167Z,5.50
2019-02-23T01:15:06.863Z,6.40
2019-02-23T01:17:34.841Z,5.87
2019-02-23T01:20:03.826Z,6.37
2019-02-23T01:22:31.851Z,5.40
2019-02-23T01:25:03.576Z,5.73
2019-02-23T01:27:31.682Z,6.10
2019-02-23T01:29:59.710Z,6.00
2019-02-23T01:32:28.276Z,5.53
2019-02-23T01:34:56.406Z,6.17
2019-02-23T01:37:24.383Z,5.90
2019-02-23T01:39:52.506Z,6.57
2019-02-23T01:42:20.648Z,6.30
2019-02-23T01:44:48.675Z,6.47
2019-02-23T01:47:16.668Z,6.97
2019-02-23T01:49:44.698Z,7.03
2019-02-23T01:52:12.746Z,6.27
2019-02-23T01:54:40.743Z,6.30
2019-02-23T01:57:08.819Z,6.63
2019-02-23T01:59:36.803Z,6.07
2019-02-23T02:02:04.773Z,6.10
2019-02-23T02:04:32.777Z,6.87
2019-02-23T02:07:00.782Z,5.80
2019-02-23T02:09:29.098Z,6.40
2019-02-23T02:11:58.439Z,7.13
2019-02-23T02:14:26.882Z,7.13
2019-02-23T02:16:54.852Z,7.13
2019-02-23T02:19:22.844Z,7.10
2019-02-23T02:21:51.718Z,6.83
2019-02-23T02:24:19.723Z,6.90
2019-02-23T02:26:47.674Z,6.77
2019-02-23T02:29:15.676Z,6.50
2019-02-23T02:31:43.616Z,6.80
2019-02-23T02:34:12.946Z,6.90
2019-02-23T02:36:40.934Z,6.93
2019-02-23T02:39:09.601Z,6.53
2019-02-23T02:41:37.620Z,6.77
2019-02-23T02:44:05.654Z,7.43
2019-02-23T02:46:34.019Z,6.97
2019-02-23T02:49:03.771Z,7.17
2019-02-23T02:51:31.818Z,6.93
2019-02-23T02:53:59.857Z,7.90
2019-02-23T02:56:27.893Z,8.10
2019-02-23T02:58:55.886Z,7.10
2019-02-23T03:01:24.369Z,7.73
2019-02-23T03:03:52.326Z,7.10
2019-02-23T03:06:20.345Z,8.40
2019-02-23T03:08:48.373Z,7.33
2019-02-23T03:11:17.369Z,7.70
2019-02-23T03:13:45.347Z,7.03
2019-02-23T03:16:13.362Z,7.60
2019-02-23T03:18:43.665Z,7.57
2019-02-23T03:21:11.649Z,7.57
2019-02-23T03:23:39.711Z,7.67
2019-02-23T03:26:07.724Z,7.93
2019-02-23T03:28:36.307Z,8.40
2019-02-23T03:31:04.369Z,7.87
2019-02-23T03:33:32.352Z,8.63
2019-02-23T03:36:00.344Z,8.63
2019-02-23T03:38:28.350Z,8.73
2019-02-23T03:40:57.255Z,8.30
2019-02-23T03:43:25.250Z,7.73
2019-02-23T03:45:54.774Z,7.87
2019-02-23T03:48:22.778Z,8.23
2019-02-23T03:50:50.798Z,8.00
2019-02-23T03:53:20.189Z,8.60
2019-02-23T03:55:48.179Z,8.37
2019-02-23T03:58:16.187Z,8.10
2019-02-23T04:00:44.280Z,8.33
2019-02-23T04:03:12.358Z,9.40
2019-02-23T04:05:40.382Z,9.17
2019-02-23T04:08:08.460Z,9.53
2019-02-23T04:10:36.530Z,9.60
2019-02-23T04:13:04.498Z,9.40
2019-02-23T04:15:32.500Z,9.30
2019-02-23T04:18:00.837Z,9.10
2019-02-23T04:20:28.864Z,9.23
2019-02-23T04:22:56.814Z,9.33
2019-02-23T04:25:24.896Z,9.67
2019-02-23T04:27:52.875Z,9.67
2019-02-23T04:30:20.959Z,9.73
2019-02-23T04:32:48.953Z,8.80
2019-02-23T04:35:17.004Z,9.33
2019-02-23T04:37:45.031Z,9.20
2019-02-23T04:40:19.312Z,9.33
2019-02-23T04:42:47.284Z,9.70
2019-02-23T04:45:15.749Z,9.10
2019-02-23T04:47:45.753Z,9.53
2019-02-23T04:50:13.517Z,10.00
2019-02-23T04:52:41.604Z,10.43
2019-02-23T04:55:09.639Z,8.80
2019-02-23T04:57:38.062Z,9.43
2019-02-23T05:00:06.604Z,10.73
2019-02-23T05:02:34.723Z,9.93
2019-02-23T05:05:02.727Z,10.03
2019-02-23T05:07:30.732Z,8.70
2019-02-23T05:09:59.684Z,10.57
2019-02-23T05:12:28.041Z,10.47
2019-02-23T05:14:56.040Z,9.13
2019-02-23T05:17:24.058Z,9.43
2019-02-23T05:19:52.146Z,10.37
2019-02-23T05:22:22.349Z,9.53
2019-02-23T05:24:53.288Z,9.87
2019-02-23T05:27:20.006Z,9.20
2019-02-23T05:29:47.995Z,9.77
2019-02-23T05:32:15.961Z,9.60
2019-02-23T05:34:43.955Z,9.87
2019-02-23T05:37:12.008Z,9.60
2019-02-23T05:39:40.014Z,10.27
2019-02-23T05:42:08.018Z,8.80
2019-02-23T05:44:36.111Z,11.20
2019-02-23T05:47:04.083Z,9.57
2019-02-23T05:49:32.096Z,10.00
2019-02-23T05:52:00.084Z,9.67
2019-02-23T05:54:28.107Z,9.93
2019-02-23T05:56:56.104Z,10.93
2019-02-23T05:59:24.066Z,10.33
2019-02-23T06:01:52.085Z,10.13
2019-02-23T06:04:20.176Z,9.60
2019-02-23T06:06:48.173Z,10.73
2019-02-23T06:09:16.568Z,9.60
2019-02-23T06:11:44.581Z,9.60
2019-02-23T06:14:12.652Z,10.13
2019-02-23T06:16:40.668Z,10.47
2019-02-23T06:19:08.641Z,10.47
2019-02-23T06:21:36.726Z,9.33
2019-02-23T06:24:04.699Z,10.07
2019-02-23T06:26:32.707Z,9.77
2019-02-23T06:29:00.722Z,10.03
2019-02-23T06:31:28.745Z,10.07
2019-02-23T06:33:56.818Z,10.10
2019-02-23T06:36:24.797Z,10.33
2019-02-23T06:38:52.908Z,9.97
2019-02-23T06:41:20.963Z,9.53
2019-02-23T06:43:49.073Z,9.40
2019-02-23T06:46:17.161Z,10.03
2019-02-23T06:48:45.254Z,10.70
2019-02-23T06:51:13.556Z,12.93
2019-02-23T06:53:41.784Z,10.93
2019-02-23T06:56:10.158Z,9.60
2019-02-23T06:58:38.235Z,10.93
2019-02-23T07:01:06.263Z,10.00
2019-02-23T07:03:34.302Z,10.33
2019-02-23T07:06:03.466Z,10.70
2019-02-23T07:08:31.556Z,10.90
2019-02-23T07:10:59.617Z,11.03
2019-02-23T07:13:27.643Z,11.13
2019-02-23T07:15:55.681Z,10.53
2019-02-23T07:18:23.693Z,11.00
2019-02-23T07:20:51.810Z,11.83
2019-02-23T07:23:19.841Z,12.47
2019-02-23T07:25:47.865Z,10.40
2019-02-23T07:28:15.871Z,11.20
2019-02-23T07:30:45.135Z,10.57
2019-02-23T07:33:13.158Z,12.07
2019-02-23T07:35:41.686Z,11.27
2019-02-23T07:38:09.718Z,11.17
2019-02-23T07:40:37.744Z,11.80
2019-02-23T07:43:07.445Z,11.30
2019-02-23T07:45:36.235Z,10.53
2019-02-23T07:48:04.327Z,10.87
2019-02-23T07:50:32.410Z,11.93
2019-02-23T07:53:00.460Z,12.30
2019-02-23T07:55:28.479Z,11.43
2019-02-23T07:57:56.652Z,11.50
2019-02-23T08:00:24.665Z,10.93
2019-02-23T08:02:52.800Z,11.13
2019-02-23T08:05:22.642Z,11.20
2019-02-23T08:07:50.972Z,12.00
2019-02-23T08:10:19.080Z,11.77
2019-02-23T08:12:47.231Z,12.70
2019-02-23T08:15:15.745Z,11.23
2019-02-23T08:17:43.835Z,12.87
2019-02-23T08:20:12.271Z,11.40
2019-02-23T08:22:40.365Z,11.10
2019-02-23T08:25:08.542Z,10.17
2019-02-23T08:27:38.483Z,10.20
2019-02-23T08:30:07.518Z,10.97
2019-02-23T08:32:36.663Z,11.17
2019-02-23T08:35:05.000Z,11.67
2019-02-23T08:37:33.162Z,11.53
2019-02-23T08:40:01.253Z,11.27
2019-02-23T08:42:29.320Z,10.73
2019-02-23T08:44:57.455Z,9.87
2019-02-23T08:47:25.521Z,10.17
2019-02-23T08:49:56.136Z,11.47
2019-02-23T08:52:24.276Z,11.17
2019-02-23T08:54:52.348Z,9.13
2019-02-23T08:57:20.408Z,10.20
2019-02-23T08:59:48.467Z,9.70
2019-02-23T09:02:16.597Z,9.83
2019-02-23T09:04:44.777Z,10.93
2019-02-23T09:07:12.875Z,10.80
2019-02-23T09:09:41.005Z,10.40
2019-02-23T09:12:09.311Z,10.20
2019-02-23T09:14:37.367Z,8.77
2019-02-23T09:17:05.483Z,9.07
2019-02-23T09:19:33.560Z,8.80
2019-02-23T09:22:01.641Z,9.23
2019-02-23T09:24:29.748Z,9.33
2019-02-23T09:26:58.937Z,8.83
2019-02-23T09:29:27.068Z,9.33
2019-02-23T09:31:55.207Z,9.17
2019-02-23T09:34:23.265Z,9.90
2019-02-23T09:36:51.317Z,10.10
2019-02-23T09:39:19.381Z,9.60
2019-02-23T09:41:47.473Z,9.83
2019-02-23T09:44:16.564Z,9.30
2019-02-23T09:46:45.278Z,9.27
2019-02-23T09:49:13.553Z,10.03
2019-02-23T09:51:41.681Z,9.40
2019-02-23T09:54:10.053Z,11.37
2019-02-23T09:56:38.103Z,9.47
2019-02-23T09:59:06.318Z,9.80
2019-02-23T10:01:34.279Z,9.47
2019-02-23T10:04:02.568Z,9.70
2019-02-23T10:06:30.569Z,9.97
2019-02-23T10:08:58.657Z,10.17
2019-02-23T10:11:26.669Z,10.23
2019-02-23T10:13:55.138Z,10.33
2019-02-23T10:16:23.338Z,9.67
2019-02-23T10:18:51.474Z,10.83
2019-02-23T10:21:19.512Z,9.93
2019-02-23T10:23:47.857Z,10.17
2019-02-23T10:26:16.430Z,9.50
2019-02-23T10:28:44.572Z,9.30
2019-02-23T10:31:12.639Z,9.80
2019-02-23T10:33:47.339Z,9.83
2019-02-23T10:36:10.339Z,9.33
2019-02-23T10:38:41.684Z,9.47
2019-02-23T10:41:09.765Z,10.83
2019-02-23T10:43:37.818Z,9.67
2019-02-23T10:46:05.812Z,10.23
2019-02-23T10:48:33.936Z,9.77
2019-02-23T10:51:01.915Z,9.53
2019-02-23T10:53:32.806Z,10.97
2019-02-23T10:56:00.026Z,10.73
2019-02-23T10:58:29.247Z,9.53
2019-02-23T11:00:57.462Z,10.07
2019-02-23T11:03:26.365Z,10.77
2019-02-23T11:05:54.522Z,9.73
2019-02-23T11:08:22.825Z,9.93
2019-02-23T11:10:52.004Z,11.40
2019-02-23T11:13:21.480Z,8.43
2019-02-23T11:15:50.891Z,10.17
2019-02-23T11:18:21.695Z,9.33
2019-02-23T11:20:56.089Z,9.80
2019-02-23T11:23:25.174Z,10.33
2019-02-23T11:25:56.186Z,9.60
2019-02-23T11:28:24.788Z,9.40
2019-02-23T11:30:53.044Z,9.80
2019-02-23T11:33:21.038Z,9.57
2019-02-23T11:35:49.100Z,10.83
2019-02-23T11:38:17.121Z,9.10
2019-02-23T11:40:45.174Z,9.40
2019-02-23T11:43:13.260Z,9.43
2019-02-23T11:45:42.084Z,8.87
2019-02-23T11:48:10.158Z,9.47
2019-02-23T11:50:38.157Z,11.07
2019-02-23T11:53:06.355Z,8.60
2019-02-23T11:55:34.409Z,10.17
2019-02-23T11:58:02.498Z,10.13
2019-02-23T12:00:30.731Z,9.03
2019-02-23T12:02:58.780Z,8.67
2019-02-23T12:05:26.798Z,8.37
2019-02-23T12:07:54.819Z,9.87
2019-02-23T12:10:22.838Z,9.63
2019-02-23T12:12:50.911Z,9.07
2019-02-23T12:15:18.970Z,9.33
2019-02-23T12:17:46.963Z,9.40
2019-02-23T12:20:15.004Z,8.67
2019-02-23T12:22:43.070Z,9.23
2019-02-23T12:25:15.117Z,8.03
2019-02-23T12:27:40.790Z,9.47
2019-02-23T12:30:08.862Z,9.17
2019-02-23T12:32:36.926Z,9.57
2019-02-23T12:35:05.203Z,9.10
2019-02-23T12:37:33.275Z,8.97
2019-02-23T12:40:01.410Z,9.13
2019-02-23T12:42:29.499Z,9.80
2019-02-23T12:44:57.533Z,8.93
2019-02-23T12:47:25.585Z,8.77
2019-02-23T12:49:53.635Z,9.00
2019-02-23T12:52:21.636Z,8.50
2019-02-23T12:54:49.666Z,9.20
2019-02-23T12:57:17.686Z,7.97
2019-02-23T12:59:45.682Z,7.80
2019-02-23T13:02:13.705Z,9.20
2019-02-23T13:04:42.828Z,7.50
2019-02-23T13:07:10.883Z,8.20
2019-02-23T13:09:40.894Z,8.17
2019-02-23T13:12:17.131Z,8.10
2019-02-23T13:15:10.108Z,8.10
2019-02-23T13:17:45.313Z,7.67
2019-02-23T13:20:20.799Z,9.67
2019-02-23T13:22:56.567Z,9.07
2019-02-23T13:25:35.489Z,8.70
2019-02-23T13:28:11.596Z,8.80
2019-02-23T13:30:58.910Z,7.67
2019-02-23T13:33:49.203Z,9.10
2019-02-23T13:36:35.331Z,8.63
2019-02-23T13:39:08.357Z,7.90
2019-02-23T13:41:45.144Z,7.67
2019-02-23T13:44:50.474Z,7.20
2019-02-23T13:47:42.007Z,8.00
2019-02-23T13:50:18.987Z,7.67
2019-02-23T13:53:17.544Z,7.57
2019-02-23T13:55:54.109Z,7.30
2019-02-23T13:58:36.964Z,7.23
2019-02-23T14:01:24.128Z,8.33
2019-02-23T14:03:58.366Z,6.97
2019-02-23T14:06:28.976Z,8.40
2019-02-23T14:09:14.990Z,8.70
2019-02-23T14:11:47.322Z,7.50
2019-02-23T14:14:27.439Z,7.70
2019-02-23T14:17:14.712Z,8.20
2019-02-23T14:20:00.585Z,7.17
2019-02-23T14:22:42.333Z,7.53
2019-02-23T14:25:17.300Z,7.07
2019-02-23T14:28:16.079Z,8.60
2019-02-23T14:30:57.335Z,7.47
2019-02-23T14:33:47.576Z,7.43
2019-02-23T14:36:18.452Z,7.60
2019-02-23T14:39:17.868Z,7.40
2019-02-23T14:42:09.174Z,7.93
2019-02-23T14:44:39.375Z,7.63
2019-02-23T14:47:24.751Z,7.77
2019-02-23T14:49:59.844Z,8.40
2019-02-23T14:52:45.484Z,8.47
2019-02-23T14:55:19.453Z,8.60
2019-02-23T14:58:05.340Z,7.30
2019-02-23T15:00:48.059Z,7.47
2019-02-23T15:03:33.799Z,7.33
2019-02-23T15:06:21.096Z,9.03
2019-02-23T15:09:08.138Z,7.40
2019-02-23T15:12:16.271Z,7.00
2019-02-23T15:14:52.467Z,7.20
2019-02-23T15:17:48.323Z,8.30
2019-02-23T15:20:41.307Z,8.33
2019-02-23T15:23:32.009Z,7.67
2019-02-23T15:26:20.375Z,8.60
2019-02-23T15:29:22.921Z,8.30
2019-02-23T15:31:56.644Z,8.20
2019-02-23T15:34:46.949Z,9.80
2019-02-23T15:37:33.743Z,9.10
2019-02-23T15:40:35.993Z,8.67
2019-02-23T15:43:32.203Z,8.03
2019-02-23T15:46:28.361Z,9.40
2019-02-23T15:49:31.089Z,9.83
2019-02-23T15:52:00.286Z,9.00
2019-02-23T15:54:29.333Z,8.73
2019-02-23T15:56:57.908Z,9.37
2019-02-23T15:59:25.934Z,8.50
2019-02-23T16:01:54.019Z,9.47
2019-02-23T16:04:22.082Z,9.80
2019-02-23T16:06:50.220Z,10.10
2019-02-23T16:09:18.277Z,10.37
2019-02-23T16:11:46.306Z,11.87
2019-02-23T16:14:14.969Z,32.87
2019-02-23T16:16:42.949Z,13.20
2019-02-23T16:19:12.063Z,11.47
2019-02-23T16:21:41.148Z,11.60
2019-02-23T16:24:10.693Z,11.53
2019-02-23T16:26:38.978Z,11.17
2019-02-23T16:29:07.005Z,11.90
2019-02-23T16:31:35.051Z,11.50
2019-02-23T16:34:07.159Z,13.90
2019-02-23T16:36:33.952Z,12.27
2019-02-23T16:39:04.404Z,35.73
2019-02-23T16:41:34.142Z,20.57
2019-02-23T16:44:02.164Z,12.00
2019-02-23T16:46:30.199Z,11.83
2019-02-23T16:48:58.527Z,13.30
2019-02-23T16:51:26.563Z,13.60
2019-02-23T16:53:54.639Z,18.57
2019-02-23T16:56:23.836Z,13.03
2019-02-23T16:58:51.838Z,15.47
2019-02-23T17:01:19.866Z,11.87
2019-02-23T17:03:47.873Z,12.00
2019-02-23T17:06:15.912Z,13.17
2019-02-23T17:08:43.954Z,13.47
2019-02-23T17:11:13.932Z,12.83
2019-02-23T17:13:42.022Z,12.07
2019-02-23T17:16:10.146Z,13.33
2019-02-23T17:18:38.235Z,12.73
2019-02-23T17:21:06.281Z,12.40
2019-02-23T17:23:34.333Z,12.10
2019-02-23T17:26:04.906Z,14.00
2019-02-23T17:28:32.066Z,13.90
2019-02-23T17:31:00.210Z,14.77
2019-02-23T17:33:28.216Z,15.87
2019-02-23T17:35:56.431Z,14.30
2019-02-23T17:38:24.622Z,17.57
2019-02-23T17:40:52.869Z,15.83
2019-02-23T17:43:20.848Z,14.80
2019-02-23T17:45:48.933Z,14.10
2019-02-23T17:48:16.995Z,13.87
2019-02-23T17:50:45.091Z,15.23
2019-02-23T17:53:14.141Z,15.47
2019-02-23T17:55:42.357Z,16.00
2019-02-23T17:58:10.492Z,15.07
2019-02-23T18:00:38.802Z,15.47
2019-02-23T18:03:07.268Z,16.90
2019-02-23T18:05:36.797Z,17.13
2019-02-23T18:08:05.292Z,16.33
2019-02-23T18:10:33.611Z,14.73
2019-02-23T18:13:04.532Z,14.70
2019-02-23T18:15:32.589Z,15.30
2019-02-23T18:18:01.713Z,15.23
2019-02-23T18:20:30.147Z,14.37
2019-02-23T18:23:02.300Z,15.40
2019-02-23T18:25:36.440Z,14.30
2019-02-23T18:28:04.872Z,16.40
2019-02-23T18:30:33.319Z,17.53
2019-02-23T18:33:01.908Z,18.60
2019-02-23T18:35:32.012Z,16.53
2019-02-23T18:38:00.532Z,18.67
2019-02-23T18:40:31.852Z,15.77
2019-02-23T18:43:00.595Z,17.87
2019-02-23T18:45:29.064Z,17.97
2019-02-23T18:47:57.856Z,19.20
2019-02-23T18:50:26.793Z,18.37
2019-02-23T18:52:55.159Z,19.63
2019-02-23T18:55:24.001Z,19.40
2019-02-23T18:57:52.670Z,17.00
2019-02-23T19:00:24.307Z,17.13
2019-02-23T19:02:51.566Z,15.90
2019-02-23T19:05:20.208Z,18.40
2019-02-23T19:07:48.872Z,18.13
2019-02-23T19:10:17.528Z,17.17
2019-02-23T19:12:47.138Z,17.57
2019-02-23T19:15:15.796Z,18.07
2019-02-23T19:17:44.776Z,18.93
2019-02-23T19:20:13.978Z,21.07
2019-02-23T19:22:42.902Z,17.93
2019-02-23T19:25:11.771Z,16.47
2019-02-23T19:27:39.901Z,21.43
2019-02-23T19:30:08.809Z,20.57
2019-02-23T19:32:36.887Z,19.60
2019-02-23T19:35:05.356Z,19.57
2019-02-23T19:37:33.401Z,19.00
2019-02-23T19:40:01.465Z,18.53
2019-02-23T19:42:29.600Z,17.17
2019-02-23T19:44:58.636Z,18.40
2019-02-23T19:47:28.562Z,19.00
2019-02-23T19:50:05.932Z,18.43
2019-02-23T19:52:34.097Z,18.17
2019-02-23T19:55:02.844Z,18.63
2019-02-23T19:57:30.989Z,18.33
2019-02-23T19:59:59.164Z,18.43
2019-02-23T20:02:27.375Z,18.23
2019-02-23T20:04:55.478Z,17.77
2019-02-23T20:07:23.590Z,18.03
2019-02-23T20:09:52.185Z,17.10
2019-02-23T20:12:20.328Z,16.53
2019-02-23T20:14:48.935Z,18.60
2019-02-23T20:17:17.077Z,16.80
2019-02-23T20:19:45.325Z,17.13
2019-02-23T20:22:13.393Z,17.03
2019-02-23T20:24:41.432Z,17.20
2019-02-23T20:27:10.536Z,17.93
2019-02-23T20:29:38.649Z,18.47
2019-02-23T20:32:06.740Z,18.40
2019-02-23T20:34:34.935Z,20.40
2019-02-23T20:37:03.086Z,19.17
2019-02-23T20:39:31.232Z,20.60
2019-02-23T20:41:59.583Z,18.97
2019-02-23T20:44:27.649Z,20.00
2019-02-23T20:46:56.461Z,19.50
2019-02-23T20:49:24.535Z,20.17
2019-02-23T20:51:52.525Z,20.17
2019-02-23T20:54:20.695Z,18.93
2019-02-23T20:56:48.802Z,19.57
2019-02-23T20:59:17.492Z,19.43
2019-02-23T21:01:45.526Z,19.03
2019-02-23T21:04:13.621Z,17.97
2019-02-23T21:06:41.947Z,19.10
2019-02-23T21:09:10.211Z,19.70
2019-02-23T21:11:38.326Z,18.80
2019-02-23T21:14:06.451Z,19.93
2019-02-23T21:16:34.564Z,24.07
2019-02-23T21:19:02.729Z,36.87
2019-02-23T21:21:30.864Z,22.40
2019-02-23T21:23:58.879Z,21.07
2019-02-23T21:26:26.964Z,20.93
2019-02-23T21:28:55.343Z,20.90
2019-02-23T21:31:23.378Z,19.83
2019-02-23T21:33:51.396Z,18.83
2019-02-23T21:36:19.400Z,20.03
2019-02-23T21:38:48.998Z,19.23
2019-02-23T21:41:17.153Z,20.03
2019-02-23T21:43:45.321Z,23.63
2019-02-23T21:46:15.215Z,34.70
2019-02-23T21:48:44.887Z,32.93
2019-02-23T21:51:13.010Z,34.07
2019-02-23T21:53:41.336Z,32.07
2019-02-23T21:56:09.656Z,24.30
2019-02-23T21:58:37.695Z,19.63
2019-02-23T22:01:05.833Z,24.00
2019-02-23T22:03:33.991Z,24.57
2019-02-23T22:06:02.619Z,26.60
2019-02-23T22:08:30.697Z,34.15
2019-02-23T22:10:58.836Z,30.43
2019-02-23T22:13:27.037Z,24.83
2019-02-23T22:15:55.201Z,25.17
2019-02-23T22:18:23.348Z,23.63
2019-02-23T22:20:51.386Z,26.10
2019-02-23T22:23:19.472Z,22.63
2019-02-23T22:25:47.525Z,22.23
2019-02-23T22:28:16.684Z,21.03
2019-02-23T22:30:44.722Z,22.20
2019-02-23T22:33:12.774Z,22.10
2019-02-23T22:35:40.800Z,22.07
2019-02-23T22:38:10.363Z,22.27
2019-02-23T22:40:38.401Z,23.17
2019-02-23T22:43:06.412Z,22.37
2019-02-23T22:45:34.502Z,21.83
2019-02-23T22:48:02.556Z,25.10
2019-02-23T22:50:32.030Z,23.60
2019-02-23T22:53:01.656Z,21.23
2019-02-23T22:55:31.083Z,20.33
2019-02-23T22:58:05.176Z,20.50
2019-02-23T23:01:11.316Z,20.37
2019-02-23T23:03:40.695Z,19.47
2019-02-23T23:06:11.502Z,21.03
2019-02-23T23:08:41.037Z,19.67
2019-02-23T23:11:10.405Z,21.40
2019-02-23T23:13:40.352Z,22.80
2019-02-23T23:16:10.289Z,19.97
2019-02-23T23:18:41.152Z,19.57
2019-02-23T23:21:10.536Z,20.20
2019-02-23T23:23:39.881Z,23.77
2019-02-23T23:26:11.516Z,20.23
2019-02-23T23:28:40.299Z,20.50
2019-02-23T23:31:09.728Z,20.10
2019-02-23T23:33:41.201Z,19.77
2019-02-23T23:36:10.543Z,21.00
2019-02-23T23:38:38.559Z,20.17
2019-02-23T23:41:06.571Z,21.53
2019-02-23T23:43:34.624Z,21.00
2019-02-23T23:46:03.283Z,19.90
2019-02-23T23:48:31.305Z,19.90
2019-02-23T23:50:59.375Z,19.73
2019-02-23T23:53:27.341Z,21.33
2019-02-23T23:55:55.365Z,20.33
2019-02-23T23:58:23.390Z,21.17
